sensor_id;sensor_type;location;lat;lon;timestamp;pressure;altitude;pressure_sealevel;temperature;humidity
53960;BME280;39866;48.638;-2.020;2022-08-07T00:01:12;102389.97;;;22.72;44.79
53960;BME280;39866;48.638;-2.020;2022-08-07T00:03:37;102393.97;;;22.65;44.78
53960;BME280;39866;48.638;-2.020;2022-08-07T00:06:03;102383.06;;;22.67;44.86
53960;BME280;39866;48.638;-2.020;2022-08-07T00:08:29;102377.00;;;22.62;44.80
53960;BME280;39866;48.638;-2.020;2022-08-07T00:10:54;102378.03;;;22.59;44.90
53960;BME280;39866;48.638;-2.020;2022-08-07T00:13:21;102380.19;;;22.53;45.17
53960;BME280;39866;48.638;-2.020;2022-08-07T00:15:46;102375.47;;;22.56;45.38
53960;BME280;39866;48.638;-2.020;2022-08-07T00:18:18;102377.22;;;22.57;45.08
53960;BME280;39866;48.638;-2.020;2022-08-07T00:20:43;102373.31;;;22.63;45.33
53960;BME280;39866;48.638;-2.020;2022-08-07T00:23:09;102370.75;;;22.60;45.22
53960;BME280;39866;48.638;-2.020;2022-08-07T00:25:35;102369.06;;;22.57;45.36
53960;BME280;39866;48.638;-2.020;2022-08-07T00:28:01;102367.94;;;22.61;45.58
53960;BME280;39866;48.638;-2.020;2022-08-07T00:30:26;102365.41;;;22.58;45.41
53960;BME280;39866;48.638;-2.020;2022-08-07T00:32:52;102366.28;;;22.59;45.48
53960;BME280;39866;48.638;-2.020;2022-08-07T00:35:18;102367.31;;;22.56;45.86
53960;BME280;39866;48.638;-2.020;2022-08-07T00:37:44;102367.31;;;22.56;45.97
53960;BME280;39866;48.638;-2.020;2022-08-07T00:40:10;102364.44;;;22.59;45.93
53960;BME280;39866;48.638;-2.020;2022-08-07T00:42:36;102362.63;;;22.60;45.90
53960;BME280;39866;48.638;-2.020;2022-08-07T00:45:02;102362.72;;;22.58;46.01
53960;BME280;39866;48.638;-2.020;2022-08-07T00:47:29;102365.94;;;22.65;46.29
53960;BME280;39866;48.638;-2.020;2022-08-07T00:49:54;102363.34;;;22.63;46.22
53960;BME280;39866;48.638;-2.020;2022-08-07T00:52:20;102365.22;;;22.61;46.32
53960;BME280;39866;48.638;-2.020;2022-08-07T00:54:46;102370.75;;;22.60;46.54
53960;BME280;39866;48.638;-2.020;2022-08-07T00:57:11;102358.22;;;22.57;46.41
53960;BME280;39866;48.638;-2.020;2022-08-07T00:59:37;102357.69;;;22.50;46.58
53960;BME280;39866;48.638;-2.020;2022-08-07T01:02:04;102359.84;;;22.44;46.59
53960;BME280;39866;48.638;-2.020;2022-08-07T01:04:31;102352.81;;;22.40;47.02
53960;BME280;39866;48.638;-2.020;2022-08-07T01:06:56;102354.50;;;22.42;47.20
53960;BME280;39866;48.638;-2.020;2022-08-07T01:09:22;102355.16;;;22.30;47.10
53960;BME280;39866;48.638;-2.020;2022-08-07T01:11:52;102356.19;;;22.28;47.52
53960;BME280;39866;48.638;-2.020;2022-08-07T01:14:21;102355.56;;;22.22;47.66
53960;BME280;39866;48.638;-2.020;2022-08-07T01:16:47;102354.28;;;22.30;47.65
53960;BME280;39866;48.638;-2.020;2022-08-07T01:19:14;102353.22;;;22.32;47.75
53960;BME280;39866;48.638;-2.020;2022-08-07T01:21:39;102339.91;;;22.28;47.97
53960;BME280;39866;48.638;-2.020;2022-08-07T01:24:06;102342.59;;;22.28;47.89
53960;BME280;39866;48.638;-2.020;2022-08-07T01:26:32;102341.66;;;22.29;48.08
53960;BME280;39866;48.638;-2.020;2022-08-07T01:28:58;102335.09;;;22.33;48.19
53960;BME280;39866;48.638;-2.020;2022-08-07T01:31:24;102335.53;;;22.25;48.40
53960;BME280;39866;48.638;-2.020;2022-08-07T01:33:55;102332.22;;;22.36;48.26
53960;BME280;39866;48.638;-2.020;2022-08-07T01:36:22;102329.75;;;22.31;48.48
53960;BME280;39866;48.638;-2.020;2022-08-07T01:38:47;102331.19;;;22.38;48.46
53960;BME280;39866;48.638;-2.020;2022-08-07T01:41:15;102339.59;;;22.34;48.80
53960;BME280;39866;48.638;-2.020;2022-08-07T01:43:41;102326.34;;;22.28;48.78
53960;BME280;39866;48.638;-2.020;2022-08-07T01:46:07;102329.03;;;22.28;48.82
53960;BME280;39866;48.638;-2.020;2022-08-07T01:48:32;102332.16;;;22.20;49.04
53960;BME280;39866;48.638;-2.020;2022-08-07T01:51:01;102327.78;;;22.17;49.22
53960;BME280;39866;48.638;-2.020;2022-08-07T01:53:28;102324.97;;;22.19;49.43
53960;BME280;39866;48.638;-2.020;2022-08-07T01:56:03;102328.16;;;22.27;49.27
53960;BME280;39866;48.638;-2.020;2022-08-07T01:58:33;102329.19;;;22.24;49.38
53960;BME280;39866;48.638;-2.020;2022-08-07T02:01:08;102333.22;;;22.17;49.65
53960;BME280;39866;48.638;-2.020;2022-08-07T02:03:40;102322.19;;;22.20;49.67
53960;BME280;39866;48.638;-2.020;2022-08-07T02:06:09;102326.72;;;22.20;50.02
53960;BME280;39866;48.638;-2.020;2022-08-07T02:08:37;102324.84;;;22.22;49.89
53960;BME280;39866;48.638;-2.020;2022-08-07T02:11:06;102321.31;;;22.20;50.10
53960;BME280;39866;48.638;-2.020;2022-08-07T02:13:33;102317.47;;;22.24;50.30
53960;BME280;39866;48.638;-2.020;2022-08-07T02:15:59;102317.09;;;22.14;50.58
53960;BME280;39866;48.638;-2.020;2022-08-07T02:18:28;102321.25;;;22.21;50.65
53960;BME280;39866;48.638;-2.020;2022-08-07T02:20:55;102315.81;;;22.21;50.78
53960;BME280;39866;48.638;-2.020;2022-08-07T02:23:22;102307.94;;;22.17;50.93
53960;BME280;39866;48.638;-2.020;2022-08-07T02:25:51;102310.69;;;22.15;51.11
53960;BME280;39866;48.638;-2.020;2022-08-07T02:28:19;102312.91;;;22.07;51.27
53960;BME280;39866;48.638;-2.020;2022-08-07T02:30:46;102302.88;;;22.09;51.42
53960;BME280;39866;48.638;-2.020;2022-08-07T02:33:13;102309.81;;;22.15;51.34
53960;BME280;39866;48.638;-2.020;2022-08-07T02:35:40;102299.28;;;22.09;51.28
53960;BME280;39866;48.638;-2.020;2022-08-07T02:38:06;102312.75;;;22.10;51.44
53960;BME280;39866;48.638;-2.020;2022-08-07T02:40:33;102312.63;;;22.13;51.45
53960;BME280;39866;48.638;-2.020;2022-08-07T02:43:00;102311.94;;;22.08;51.59
53960;BME280;39866;48.638;-2.020;2022-08-07T02:45:29;102303.81;;;22.08;51.41
53960;BME280;39866;48.638;-2.020;2022-08-07T02:47:56;102297.75;;;22.03;51.63
53960;BME280;39866;48.638;-2.020;2022-08-07T02:50:21;102302.53;;;21.98;51.57
53960;BME280;39866;48.638;-2.020;2022-08-07T02:53:08;102301.44;;;22.02;51.69
53960;BME280;39866;48.638;-2.020;2022-08-07T02:55:37;102297.69;;;22.05;51.48
53960;BME280;39866;48.638;-2.020;2022-08-07T02:58:06;102297.34;;;22.11;51.61
53960;BME280;39866;48.638;-2.020;2022-08-07T03:00:34;102291.06;;;22.10;51.35
53960;BME280;39866;48.638;-2.020;2022-08-07T03:03:01;102295.59;;;22.10;51.57
53960;BME280;39866;48.638;-2.020;2022-08-07T03:05:28;102294.88;;;22.06;51.74
53960;BME280;39866;48.638;-2.020;2022-08-07T03:07:54;102293.78;;;21.93;52.21
53960;BME280;39866;48.638;-2.020;2022-08-07T03:10:21;102285.47;;;21.96;52.17
53960;BME280;39866;48.638;-2.020;2022-08-07T03:12:47;102288.16;;;21.96;52.41
53960;BME280;39866;48.638;-2.020;2022-08-07T03:15:14;102284.69;;;21.94;52.29
53960;BME280;39866;48.638;-2.020;2022-08-07T03:17:41;102283.09;;;21.90;52.67
53960;BME280;39866;48.638;-2.020;2022-08-07T03:20:07;102283.97;;;21.90;52.76
53960;BME280;39866;48.638;-2.020;2022-08-07T03:22:33;102282.13;;;21.91;52.76
53960;BME280;39866;48.638;-2.020;2022-08-07T03:24:59;102281.81;;;21.97;52.84
53960;BME280;39866;48.638;-2.020;2022-08-07T03:27:25;102288.03;;;21.99;53.04
53960;BME280;39866;48.638;-2.020;2022-08-07T03:29:51;102283.47;;;21.99;53.28
53960;BME280;39866;48.638;-2.020;2022-08-07T03:32:31;102287.25;;;21.97;53.32
53960;BME280;39866;48.638;-2.020;2022-08-07T03:34:59;102284.81;;;21.91;53.54
53960;BME280;39866;48.638;-2.020;2022-08-07T03:37:27;102284.91;;;21.89;53.86
53960;BME280;39866;48.638;-2.020;2022-08-07T03:39:54;102283.88;;;21.92;54.14
53960;BME280;39866;48.638;-2.020;2022-08-07T03:42:20;102287.63;;;21.89;54.45
53960;BME280;39866;48.638;-2.020;2022-08-07T03:44:46;102288.59;;;21.88;54.69
53960;BME280;39866;48.638;-2.020;2022-08-07T03:47:12;102286.50;;;21.93;54.71
53960;BME280;39866;48.638;-2.020;2022-08-07T03:49:39;102286.44;;;21.95;54.72
53960;BME280;39866;48.638;-2.020;2022-08-07T03:52:06;102286.75;;;21.89;54.80
53960;BME280;39866;48.638;-2.020;2022-08-07T03:54:33;102284.19;;;21.86;54.67
53960;BME280;39866;48.638;-2.020;2022-08-07T03:56:59;102279.06;;;21.80;55.07
53960;BME280;39866;48.638;-2.020;2022-08-07T03:59:25;102292.25;;;21.87;55.24
53960;BME280;39866;48.638;-2.020;2022-08-07T04:01:53;102279.41;;;21.73;55.11
53960;BME280;39866;48.638;-2.020;2022-08-07T04:04:20;102290.09;;;21.76;55.07
53960;BME280;39866;48.638;-2.020;2022-08-07T04:06:45;102288.41;;;21.74;55.07
53960;BME280;39866;48.638;-2.020;2022-08-07T04:09:12;102287.88;;;21.85;55.29
53960;BME280;39866;48.638;-2.020;2022-08-07T04:11:38;102292.47;;;21.83;54.94
53960;BME280;39866;48.638;-2.020;2022-08-07T04:14:05;102290.00;;;21.78;55.25
53960;BME280;39866;48.638;-2.020;2022-08-07T04:16:30;102297.13;;;21.81;55.32
53960;BME280;39866;48.638;-2.020;2022-08-07T04:18:57;102287.06;;;21.83;55.17
53960;BME280;39866;48.638;-2.020;2022-08-07T04:21:22;102286.28;;;21.81;55.14
53960;BME280;39866;48.638;-2.020;2022-08-07T04:23:48;102289.13;;;21.77;55.19
53960;BME280;39866;48.638;-2.020;2022-08-07T04:26:14;102292.56;;;21.81;55.28
53960;BME280;39866;48.638;-2.020;2022-08-07T04:28:40;102290.72;;;21.82;55.46
53960;BME280;39866;48.638;-2.020;2022-08-07T04:31:05;102289.13;;;21.77;55.40
53960;BME280;39866;48.638;-2.020;2022-08-07T04:33:32;102282.59;;;21.82;55.47
53960;BME280;39866;48.638;-2.020;2022-08-07T04:35:58;102288.16;;;21.79;55.48
53960;BME280;39866;48.638;-2.020;2022-08-07T04:38:24;102288.91;;;21.82;55.67
53960;BME280;39866;48.638;-2.020;2022-08-07T04:40:51;102293.28;;;21.85;55.54
53960;BME280;39866;48.638;-2.020;2022-08-07T04:43:18;102294.41;;;21.81;55.26
53960;BME280;39866;48.638;-2.020;2022-08-07T04:46:51;102294.72;;;21.74;55.54
53960;BME280;39866;48.638;-2.020;2022-08-07T04:49:08;102297.56;;;21.71;55.82
53960;BME280;39866;48.638;-2.020;2022-08-07T04:54:31;102295.81;;;21.70;55.67
53960;BME280;39866;48.638;-2.020;2022-08-07T05:00:04;102300.50;;;21.67;55.92
53960;BME280;39866;48.638;-2.020;2022-08-07T05:08:06;102307.00;;;21.64;55.78
53960;BME280;39866;48.638;-2.020;2022-08-07T05:10:42;102300.75;;;21.62;55.59
53960;BME280;39866;48.638;-2.020;2022-08-07T05:13:31;102306.16;;;21.62;55.79
53960;BME280;39866;48.638;-2.020;2022-08-07T05:16:04;102314.31;;;21.62;55.76
53960;BME280;39866;48.638;-2.020;2022-08-07T05:18:34;102315.56;;;21.55;55.95
53960;BME280;39866;48.638;-2.020;2022-08-07T05:21:05;102318.06;;;21.60;55.93
53960;BME280;39866;48.638;-2.020;2022-08-07T05:23:47;102313.28;;;21.65;55.95
53960;BME280;39866;48.638;-2.020;2022-08-07T05:26:17;102318.13;;;21.58;55.79
53960;BME280;39866;48.638;-2.020;2022-08-07T05:28:44;102315.34;;;21.60;55.98
53960;BME280;39866;48.638;-2.020;2022-08-07T05:31:11;102321.41;;;21.65;56.42
53960;BME280;39866;48.638;-2.020;2022-08-07T05:33:38;102321.22;;;21.50;56.83
53960;BME280;39866;48.638;-2.020;2022-08-07T05:36:06;102317.94;;;21.44;57.27
53960;BME280;39866;48.638;-2.020;2022-08-07T05:38:32;102322.25;;;21.48;57.39
53960;BME280;39866;48.638;-2.020;2022-08-07T05:40:57;102325.19;;;21.43;57.36
53960;BME280;39866;48.638;-2.020;2022-08-07T05:43:24;102324.16;;;21.46;57.48
53960;BME280;39866;48.638;-2.020;2022-08-07T05:45:49;102331.91;;;21.54;57.42
53960;BME280;39866;48.638;-2.020;2022-08-07T05:48:15;102342.66;;;21.55;57.51
53960;BME280;39866;48.638;-2.020;2022-08-07T05:50:43;102329.06;;;21.57;57.73
53960;BME280;39866;48.638;-2.020;2022-08-07T05:53:08;102332.25;;;21.65;57.64
53960;BME280;39866;48.638;-2.020;2022-08-07T05:55:35;102340.88;;;21.73;57.62
53960;BME280;39866;48.638;-2.020;2022-08-07T05:58:01;102342.41;;;21.79;57.70
53960;BME280;39866;48.638;-2.020;2022-08-07T06:00:28;102338.56;;;21.83;57.66
53960;BME280;39866;48.638;-2.020;2022-08-07T06:02:55;102336.09;;;21.78;58.35
53960;BME280;39866;48.638;-2.020;2022-08-07T06:05:23;102342.25;;;21.82;58.10
53960;BME280;39866;48.638;-2.020;2022-08-07T06:07:54;102341.28;;;21.83;58.46
53960;BME280;39866;48.638;-2.020;2022-08-07T06:10:20;102348.56;;;21.63;59.45
53960;BME280;39866;48.638;-2.020;2022-08-07T06:12:46;102348.38;;;21.68;59.78
53960;BME280;39866;48.638;-2.020;2022-08-07T06:15:13;102356.09;;;21.75;59.87
53960;BME280;39866;48.638;-2.020;2022-08-07T06:17:39;102354.91;;;21.64;60.72
53960;BME280;39866;48.638;-2.020;2022-08-07T06:20:07;102351.63;;;21.74;60.29
53960;BME280;39866;48.638;-2.020;2022-08-07T06:22:33;102348.38;;;21.68;60.51
53960;BME280;39866;48.638;-2.020;2022-08-07T06:24:59;102345.66;;;21.68;60.85
53960;BME280;39866;48.638;-2.020;2022-08-07T06:27:25;102348.88;;;21.76;60.64
53960;BME280;39866;48.638;-2.020;2022-08-07T06:29:51;102354.84;;;21.83;60.36
53960;BME280;39866;48.638;-2.020;2022-08-07T06:32:17;102357.31;;;21.87;60.68
53960;BME280;39866;48.638;-2.020;2022-08-07T06:34:42;102350.06;;;21.88;60.60
53960;BME280;39866;48.638;-2.020;2022-08-07T06:37:08;102353.81;;;21.85;60.57
53960;BME280;39866;48.638;-2.020;2022-08-07T06:39:33;102358.19;;;21.88;60.83
53960;BME280;39866;48.638;-2.020;2022-08-07T06:42:16;102359.25;;;21.85;61.06
53960;BME280;39866;48.638;-2.020;2022-08-07T06:44:45;102360.13;;;21.86;61.60
53960;BME280;39866;48.638;-2.020;2022-08-07T06:47:11;102361.81;;;21.52;63.00
53960;BME280;39866;48.638;-2.020;2022-08-07T06:49:37;102364.44;;;21.35;63.49
53960;BME280;39866;48.638;-2.020;2022-08-07T06:52:03;102358.81;;;21.39;63.75
53960;BME280;39866;48.638;-2.020;2022-08-07T06:54:31;102365.31;;;21.54;63.66
53960;BME280;39866;48.638;-2.020;2022-08-07T06:56:57;102367.91;;;21.74;62.91
53960;BME280;39866;48.638;-2.020;2022-08-07T06:59:26;102363.09;;;21.62;63.28
53960;BME280;39866;48.638;-2.020;2022-08-07T07:01:54;102361.94;;;21.68;63.30
53960;BME280;39866;48.638;-2.020;2022-08-07T07:04:22;102360.88;;;21.70;62.71
53960;BME280;39866;48.638;-2.020;2022-08-07T07:06:48;102358.09;;;21.72;62.04
53960;BME280;39866;48.638;-2.020;2022-08-07T07:09:24;102360.59;;;21.76;62.33
53960;BME280;39866;48.638;-2.020;2022-08-07T07:11:59;102355.31;;;21.73;61.72
53960;BME280;39866;48.638;-2.020;2022-08-07T07:14:27;102356.88;;;21.60;61.55
53960;BME280;39866;48.638;-2.020;2022-08-07T07:16:55;102364.56;;;21.50;61.61
53960;BME280;39866;48.638;-2.020;2022-08-07T07:19:30;102358.88;;;21.57;61.40
53960;BME280;39866;48.638;-2.020;2022-08-07T07:21:56;102359.13;;;21.69;61.12
53960;BME280;39866;48.638;-2.020;2022-08-07T07:24:23;102357.66;;;21.62;60.62
53960;BME280;39866;48.638;-2.020;2022-08-07T07:26:50;102352.41;;;21.59;59.95
53960;BME280;39866;48.638;-2.020;2022-08-07T07:29:16;102350.63;;;21.77;59.69
53960;BME280;39866;48.638;-2.020;2022-08-07T07:31:46;102354.50;;;21.71;59.75
53960;BME280;39866;48.638;-2.020;2022-08-07T07:34:15;102361.22;;;21.82;59.52
53960;BME280;39866;48.638;-2.020;2022-08-07T07:36:44;102362.44;;;21.93;58.46
53960;BME280;39866;48.638;-2.020;2022-08-07T07:39:10;102361.72;;;21.90;57.14
53960;BME280;39866;48.638;-2.020;2022-08-07T07:41:39;102357.34;;;22.05;56.35
53960;BME280;39866;48.638;-2.020;2022-08-07T07:44:08;102356.59;;;21.84;55.31
53960;BME280;39866;48.638;-2.020;2022-08-07T07:46:35;102357.16;;;21.90;55.15
53960;BME280;39866;48.638;-2.020;2022-08-07T07:49:02;102359.72;;;21.76;55.54
53960;BME280;39866;48.638;-2.020;2022-08-07T07:51:29;102362.47;;;21.74;54.64
53960;BME280;39866;48.638;-2.020;2022-08-07T07:53:56;102364.72;;;21.84;54.90
53960;BME280;39866;48.638;-2.020;2022-08-07T07:56:24;102360.16;;;21.67;54.97
53960;BME280;39866;48.638;-2.020;2022-08-07T07:58:52;102352.38;;;21.78;54.79
53960;BME280;39866;48.638;-2.020;2022-08-07T08:01:19;102363.34;;;21.75;54.17
53960;BME280;39866;48.638;-2.020;2022-08-07T08:03:45;102363.69;;;21.86;54.14
53960;BME280;39866;48.638;-2.020;2022-08-07T08:06:11;102362.84;;;22.03;53.89
53960;BME280;39866;48.638;-2.020;2022-08-07T08:08:39;102365.03;;;22.14;53.79
53960;BME280;39866;48.638;-2.020;2022-08-07T08:11:07;102358.28;;;22.04;53.34
53960;BME280;39866;48.638;-2.020;2022-08-07T08:13:35;102356.69;;;21.99;53.05
53960;BME280;39866;48.638;-2.020;2022-08-07T08:16:04;102357.56;;;22.00;52.01
53960;BME280;39866;48.638;-2.020;2022-08-07T08:18:32;102361.25;;;21.99;51.44
53960;BME280;39866;48.638;-2.020;2022-08-07T08:21:00;102363.00;;;22.00;50.70
53960;BME280;39866;48.638;-2.020;2022-08-07T08:23:32;102359.16;;;22.04;50.34
53960;BME280;39866;48.638;-2.020;2022-08-07T08:26:18;102361.38;;;22.15;48.96
53960;BME280;39866;48.638;-2.020;2022-08-07T08:29:03;102362.09;;;22.18;48.74
53960;BME280;39866;48.638;-2.020;2022-08-07T08:31:32;102361.59;;;22.28;47.29
53960;BME280;39866;48.638;-2.020;2022-08-07T08:34:01;102362.19;;;22.17;47.82
53960;BME280;39866;48.638;-2.020;2022-08-07T08:36:31;102353.94;;;22.18;48.13
53960;BME280;39866;48.638;-2.020;2022-08-07T08:38:58;102354.44;;;22.27;47.76
53960;BME280;39866;48.638;-2.020;2022-08-07T08:41:50;102363.28;;;22.30;47.54
53960;BME280;39866;48.638;-2.020;2022-08-07T08:44:20;102355.38;;;22.43;47.59
53960;BME280;39866;48.638;-2.020;2022-08-07T08:47:04;102351.84;;;22.41;47.40
53960;BME280;39866;48.638;-2.020;2022-08-07T08:49:41;102348.34;;;22.39;48.10
53960;BME280;39866;48.638;-2.020;2022-08-07T08:52:17;102350.97;;;22.40;47.37
53960;BME280;39866;48.638;-2.020;2022-08-07T08:55:09;102343.56;;;22.44;45.86
53960;BME280;39866;48.638;-2.020;2022-08-07T08:58:28;102342.78;;;22.42;46.61
53960;BME280;39866;48.638;-2.020;2022-08-07T09:00:50;102346.50;;;22.39;44.56
53960;BME280;39866;48.638;-2.020;2022-08-07T09:03:33;102339.91;;;22.28;45.53
53960;BME280;39866;48.638;-2.020;2022-08-07T09:06:16;102333.59;;;22.27;45.92
53960;BME280;39866;48.638;-2.020;2022-08-07T09:09:02;102346.69;;;22.19;49.76
53960;BME280;39866;48.638;-2.020;2022-08-07T09:11:52;102348.66;;;22.50;50.58
53960;BME280;39866;48.638;-2.020;2022-08-07T09:16:56;102344.34;;;21.94;51.39
53960;BME280;39866;48.638;-2.020;2022-08-07T09:19:54;102334.44;;;22.10;50.21
53960;BME280;39866;48.638;-2.020;2022-08-07T09:24:57;102350.25;;;22.02;50.29
53960;BME280;39866;48.638;-2.020;2022-08-07T09:30:15;102336.84;;;22.16;52.28
53960;BME280;39866;48.638;-2.020;2022-08-07T09:35:17;102330.00;;;22.09;52.99
53960;BME280;39866;48.638;-2.020;2022-08-07T09:38:00;102330.56;;;22.16;52.99
53960;BME280;39866;48.638;-2.020;2022-08-07T09:41:01;102336.53;;;22.05;54.10
53960;BME280;39866;48.638;-2.020;2022-08-07T09:44:04;102334.00;;;22.19;56.02
53960;BME280;39866;48.638;-2.020;2022-08-07T09:47:13;102331.75;;;22.28;55.40
53960;BME280;39866;48.638;-2.020;2022-08-07T09:49:57;102323.28;;;21.99;57.11
53960;BME280;39866;48.638;-2.020;2022-08-07T09:57:49;102327.66;;;22.01;54.45
53960;BME280;39866;48.638;-2.020;2022-08-07T10:00:21;102335.72;;;22.03;54.03
53960;BME280;39866;48.638;-2.020;2022-08-07T10:06:08;102318.97;;;21.95;53.45
53960;BME280;39866;48.638;-2.020;2022-08-07T10:08:52;102326.66;;;22.21;53.95
53960;BME280;39866;48.638;-2.020;2022-08-07T10:19:42;102316.19;;;21.96;51.99
53960;BME280;39866;48.638;-2.020;2022-08-07T10:22:46;102318.97;;;22.12;53.25
53960;BME280;39866;48.638;-2.020;2022-08-07T10:25:31;102311.03;;;22.27;52.84
53960;BME280;39866;48.638;-2.020;2022-08-07T10:31:06;102315.00;;;22.19;50.81
53960;BME280;39866;48.638;-2.020;2022-08-07T10:34:02;102303.91;;;22.41;50.21
53960;BME280;39866;48.638;-2.020;2022-08-07T10:39:36;102299.34;;;22.24;51.32
53960;BME280;39866;48.638;-2.020;2022-08-07T10:42:15;102296.94;;;22.36;50.34
53960;BME280;39866;48.638;-2.020;2022-08-07T10:45:02;102307.66;;;22.39;51.20
53960;BME280;39866;48.638;-2.020;2022-08-07T10:47:41;102311.94;;;22.43;50.45
53960;BME280;39866;48.638;-2.020;2022-08-07T10:53:09;102302.06;;;22.24;51.08
53960;BME280;39866;48.638;-2.020;2022-08-07T10:58:16;102305.34;;;22.31;55.39
53960;BME280;39866;48.638;-2.020;2022-08-07T11:00:51;102308.63;;;22.38;55.90
53960;BME280;39866;48.638;-2.020;2022-08-07T11:03:28;102297.91;;;22.35;56.46
53960;BME280;39866;48.638;-2.020;2022-08-07T11:06:12;102303.84;;;22.25;56.37
53960;BME280;39866;48.638;-2.020;2022-08-07T11:09:02;102298.88;;;22.34;55.93
53960;BME280;39866;48.638;-2.020;2022-08-07T11:11:32;102296.63;;;22.42;56.36
53960;BME280;39866;48.638;-2.020;2022-08-07T11:14:09;102296.19;;;22.34;55.07
53960;BME280;39866;48.638;-2.020;2022-08-07T11:16:40;102298.16;;;22.30;55.87
53960;BME280;39866;48.638;-2.020;2022-08-07T11:19:16;102282.19;;;22.41;55.02
53960;BME280;39866;48.638;-2.020;2022-08-07T11:24:49;102289.88;;;22.33;55.07
53960;BME280;39866;48.638;-2.020;2022-08-07T11:27:37;102282.06;;;22.27;54.77
53960;BME280;39866;48.638;-2.020;2022-08-07T11:30:10;102286.16;;;22.52;54.39
53960;BME280;39866;48.638;-2.020;2022-08-07T11:32:40;102281.72;;;22.66;56.03
53960;BME280;39866;48.638;-2.020;2022-08-07T11:35:11;102264.13;;;22.73;56.95
53960;BME280;39866;48.638;-2.020;2022-08-07T11:38:09;102278.16;;;22.66;54.47
53960;BME280;39866;48.638;-2.020;2022-08-07T11:41:00;102270.44;;;22.74;55.82
53960;BME280;39866;48.638;-2.020;2022-08-07T11:43:36;102264.28;;;22.55;56.22
53960;BME280;39866;48.638;-2.020;2022-08-07T11:52:02;102258.22;;;22.65;57.68
53960;BME280;39866;48.638;-2.020;2022-08-07T11:57:39;102253.59;;;22.52;54.94
53960;BME280;39866;48.638;-2.020;2022-08-07T12:06:31;102245.31;;;22.86;54.79
53960;BME280;39866;48.638;-2.020;2022-08-07T12:08:43;102243.91;;;22.79;54.09
53960;BME280;39866;48.638;-2.020;2022-08-07T12:11:25;102246.00;;;22.74;53.71
53960;BME280;39866;48.638;-2.020;2022-08-07T12:14:19;102248.25;;;22.82;54.77
53960;BME280;39866;48.638;-2.020;2022-08-07T12:16:47;102239.56;;;22.92;55.15
53960;BME280;39866;48.638;-2.020;2022-08-07T12:19:20;102239.19;;;22.83;55.96
53960;BME280;39866;48.638;-2.020;2022-08-07T12:22:02;102237.41;;;22.82;55.11
53960;BME280;39866;48.638;-2.020;2022-08-07T12:24:54;102231.31;;;22.94;56.29
53960;BME280;39866;48.638;-2.020;2022-08-07T12:27:43;102232.22;;;22.94;56.61
53960;BME280;39866;48.638;-2.020;2022-08-07T12:30:11;102232.50;;;22.88;54.76
53960;BME280;39866;48.638;-2.020;2022-08-07T12:32:47;102227.97;;;22.89;54.73
53960;BME280;39866;48.638;-2.020;2022-08-07T12:35:14;102220.78;;;22.88;54.47
53960;BME280;39866;48.638;-2.020;2022-08-07T12:37:46;102225.41;;;22.86;54.47
53960;BME280;39866;48.638;-2.020;2022-08-07T12:40:19;102223.53;;;23.04;54.21
53960;BME280;39866;48.638;-2.020;2022-08-07T12:42:46;102213.97;;;23.12;55.26
53960;BME280;39866;48.638;-2.020;2022-08-07T12:45:18;102221.16;;;23.13;54.39
53960;BME280;39866;48.638;-2.020;2022-08-07T12:47:51;102217.28;;;23.17;55.05
53960;BME280;39866;48.638;-2.020;2022-08-07T12:53:14;102201.66;;;23.37;54.04
53960;BME280;39866;48.638;-2.020;2022-08-07T12:58:26;102204.13;;;23.26;53.83
53960;BME280;39866;48.638;-2.020;2022-08-07T13:06:28;102202.66;;;23.66;54.37
53960;BME280;39866;48.638;-2.020;2022-08-07T13:09:08;102199.81;;;23.67;54.41
53960;BME280;39866;48.638;-2.020;2022-08-07T13:12:06;102199.56;;;23.72;53.70
53960;BME280;39866;48.638;-2.020;2022-08-07T13:15:02;102190.38;;;23.89;53.28
53960;BME280;39866;48.638;-2.020;2022-08-07T13:17:37;102196.00;;;24.00;53.48
53960;BME280;39866;48.638;-2.020;2022-08-07T13:22:49;102193.00;;;24.05;52.67
53960;BME280;39866;48.638;-2.020;2022-08-07T13:25:31;102184.63;;;24.08;52.33
53960;BME280;39866;48.638;-2.020;2022-08-07T13:28:03;102184.59;;;24.38;52.20
53960;BME280;39866;48.638;-2.020;2022-08-07T13:30:33;102180.97;;;24.37;51.04
53960;BME280;39866;48.638;-2.020;2022-08-07T13:35:54;102189.22;;;24.64;49.43
53960;BME280;39866;48.638;-2.020;2022-08-07T13:38:34;102182.56;;;24.83;48.81
53960;BME280;39866;48.638;-2.020;2022-08-07T13:41:10;102188.56;;;24.88;48.64
53960;BME280;39866;48.638;-2.020;2022-08-07T13:43:41;102177.41;;;25.05;49.05
53960;BME280;39866;48.638;-2.020;2022-08-07T13:46:09;102180.16;;;25.05;48.47
53960;BME280;39866;48.638;-2.020;2022-08-07T13:48:37;102171.97;;;25.19;48.58
53960;BME280;39866;48.638;-2.020;2022-08-07T13:51:05;102189.44;;;25.30;47.55
53960;BME280;39866;48.638;-2.020;2022-08-07T13:53:37;102176.59;;;25.32;48.25
53960;BME280;39866;48.638;-2.020;2022-08-07T13:56:05;102171.91;;;25.47;46.92
53960;BME280;39866;48.638;-2.020;2022-08-07T13:58:37;102165.94;;;25.54;47.04
53960;BME280;39866;48.638;-2.020;2022-08-07T14:01:23;102171.69;;;25.37;47.90
53960;BME280;39866;48.638;-2.020;2022-08-07T14:03:51;102181.88;;;25.73;48.37
53960;BME280;39866;48.638;-2.020;2022-08-07T14:06:18;102171.00;;;26.11;45.49
53960;BME280;39866;48.638;-2.020;2022-08-07T14:08:48;102168.28;;;25.86;43.21
53960;BME280;39866;48.638;-2.020;2022-08-07T14:11:16;102162.59;;;26.27;43.51
53960;BME280;39866;48.638;-2.020;2022-08-07T14:13:48;102149.91;;;26.39;44.65
53960;BME280;39866;48.638;-2.020;2022-08-07T14:16:23;102151.38;;;26.68;41.75
53960;BME280;39866;48.638;-2.020;2022-08-07T14:18:51;102154.53;;;26.75;40.37
53960;BME280;39866;48.638;-2.020;2022-08-07T14:21:29;102149.16;;;26.50;41.52
53960;BME280;39866;48.638;-2.020;2022-08-07T14:24:14;102154.84;;;26.34;41.23
53960;BME280;39866;48.638;-2.020;2022-08-07T14:26:48;102152.78;;;26.12;41.04